Time;durP1;ratioP1;P1;durP2;ratioP2;P2;SDS_P1;SDS_P2;PMS_P1;PMS_P2;Temp;Humidity;BMP_temperature;BMP_pressure;BME280_temperature;BME280_humidity;BME280_pressure;Samples;Min_cycle;Max_cycle;Signal;HPM_P1;HPM_P2
2023/09/30 00:02:05;;;;;;;6.97;3.80;;;;;;;22.02;44.39;97314.47;5027886;28;20197;-81
2023/09/30 00:04:32;;;;;;;9.57;4.80;;;;;;;21.65;45.26;97315.97;5028403;28;20196;-77
2023/09/30 00:06:59;;;;;;;8.30;4.50;;;;;;;21.76;45.59;97323.78;5027398;28;20242;-78
2023/09/30 00:09:26;;;;;;;12.50;4.90;;;;;;;21.73;44.51;97316.97;5028387;28;20210;-78
2023/09/30 00:11:55;;;;;;;7.63;5.13;;;;;;;21.80;44.73;97319.91;5025916;28;20204;-79
2023/09/30 00:14:23;;;;;;;13.23;5.03;;;;;;;21.76;44.99;97327.25;5028170;28;20242;-86
2023/09/30 00:16:50;;;;;;;9.90;4.93;;;;;;;21.87;44.92;97326.34;5027352;28;20308;-77
2023/09/30 00:19:18;;;;;;;7.87;4.87;;;;;;;21.70;45.49;97321.69;5027742;28;20279;-78
2023/09/30 00:21:45;;;;;;;10.10;5.30;;;;;;;21.65;45.03;97321.22;5028133;28;20936;-78
2023/09/30 00:24:12;;;;;;;9.30;4.73;;;;;;;21.63;45.87;97328.44;5026997;28;20191;-79
2023/09/30 00:26:39;;;;;;;9.43;5.17;;;;;;;21.54;45.74;97319.50;5027999;28;20319;-77
2023/09/30 00:29:06;;;;;;;6.97;4.47;;;;;;;21.42;46.41;97323.19;5027246;28;20233;-77
2023/09/30 00:31:33;;;;;;;9.70;5.00;;;;;;;21.27;47.03;97318.38;5028371;28;20194;-79
2023/09/30 00:34:00;;;;;;;8.17;4.87;;;;;;;21.18;47.30;97324.41;5027497;28;20593;-77
2023/09/30 00:36:27;;;;;;;11.77;5.03;;;;;;;21.15;47.32;97325.50;5027670;28;20319;-77
2023/09/30 00:38:54;;;;;;;9.90;4.67;;;;;;;21.25;47.32;97323.75;5026330;28;20290;-77
2023/09/30 00:41:22;;;;;;;9.50;5.13;;;;;;;21.18;47.40;97321.78;5025800;28;20231;-76
2023/09/30 00:43:49;;;;;;;18.13;7.33;;;;;;;21.05;48.33;97322.81;5026566;28;20200;-79
2023/09/30 00:46:28;;;;;;;10.23;5.00;;;;;;;21.06;47.77;97319.19;5025254;28;20240;-78
2023/09/30 00:48:58;;;;;;;11.67;4.97;;;;;;;21.16;47.32;97327.19;5026548;28;20207;-85
2023/09/30 00:51:26;;;;;;;8.43;4.43;;;;;;;20.78;48.24;97314.50;5027201;28;20765;-85
2023/09/30 00:53:56;;;;;;;12.97;4.63;;;;;;;20.68;48.48;97315.38;5026991;28;20249;-77
2023/09/30 00:56:27;;;;;;;10.90;4.40;;;;;;;20.79;47.98;97321.44;5027737;28;20213;-81
2023/09/30 00:58:55;;;;;;;11.30;4.87;;;;;;;20.87;47.46;97319.03;5026580;28;20217;-77
2023/09/30 01:01:23;;;;;;;10.23;4.50;;;;;;;20.81;47.57;97319.50;5028024;28;20202;-79
2023/09/30 01:03:51;;;;;;;9.50;4.70;;;;;;;20.76;48.17;97311.19;5026584;28;20298;-84
2023/09/30 01:06:19;;;;;;;9.47;4.70;;;;;;;20.58;48.39;97307.41;5027309;28;20230;-85
2023/09/30 01:08:46;;;;;;;7.63;4.77;;;;;;;20.62;49.04;97322.00;5027114;28;20660;-84
2023/09/30 01:11:14;;;;;;;7.60;4.83;;;;;;;20.45;48.82;97311.16;5027216;28;20635;-80
2023/09/30 01:13:44;;;;;;;8.40;4.93;;;;;;;20.40;49.06;97314.19;5027600;28;20807;-77
2023/09/30 01:16:12;;;;;;;5.20;3.80;;;;;;;20.49;48.95;97313.41;5026370;28;20708;-76
2023/09/30 01:18:42;;;;;;;11.97;4.87;;;;;;;20.21;49.83;97308.72;5025927;28;20231;-76
2023/09/30 01:21:11;;;;;;;7.93;4.57;;;;;;;20.27;49.22;97313.47;5026577;28;20206;-76
2023/09/30 01:23:43;;;;;;;7.90;4.47;;;;;;;20.40;49.30;97303.66;5025748;28;20272;-76
2023/09/30 01:26:13;;;;;;;8.47;4.40;;;;;;;20.26;49.05;97310.00;5025531;28;20234;-76
2023/09/30 01:28:41;;;;;;;7.37;4.87;;;;;;;20.13;49.07;97303.19;5026706;28;20199;-79
2023/09/30 01:31:09;;;;;;;11.27;4.70;;;;;;;19.82;49.63;97307.41;5027590;28;20278;-78
2023/09/30 01:33:36;;;;;;;8.53;4.73;;;;;;;19.46;50.55;97305.00;5024918;28;20663;-77
2023/09/30 01:36:04;;;;;;;10.40;5.37;;;;;;;19.07;51.63;97314.09;5027199;28;20269;-77
2023/09/30 01:38:31;;;;;;;7.10;4.70;;;;;;;18.94;51.96;97307.28;5027021;28;20230;-77
2023/09/30 01:40:58;;;;;;;8.20;5.00;;;;;;;18.91;51.96;97307.47;5034505;28;20754;-83
2023/09/30 01:43:28;;;;;;;8.70;5.00;;;;;;;18.93;52.22;97301.19;5028749;28;20260;-85
2023/09/30 01:45:56;;;;;;;19.93;5.47;;;;;;;19.06;51.99;97309.78;5025386;28;20287;-83
2023/09/30 01:48:23;;;;;;;9.50;4.90;;;;;;;19.23;51.16;97309.34;5027297;28;20201;-84
2023/09/30 01:50:51;;;;;;;10.37;5.00;;;;;;;19.11;51.71;97310.28;5026428;28;20639;-82
2023/09/30 01:53:19;;;;;;;8.37;5.00;;;;;;;19.18;51.48;97311.50;5026130;28;20690;-76
2023/09/30 01:55:47;;;;;;;10.73;5.73;;;;;;;18.88;51.69;97307.69;5027987;28;20285;-76
2023/09/30 01:58:15;;;;;;;9.40;5.33;;;;;;;18.83;52.05;97297.56;5027879;28;20232;-76
2023/09/30 02:00:42;;;;;;;7.20;4.03;;;;;;;18.81;51.96;97301.25;5027164;28;20249;-76
2023/09/30 02:03:09;;;;;;;8.40;4.93;;;;;;;18.77;52.07;97292.78;5027407;28;20220;-76
2023/09/30 02:05:39;;;;;;;8.50;5.00;;;;;;;18.83;52.23;97279.19;5026696;28;20893;-77
2023/09/30 02:08:06;;;;;;;9.33;5.43;;;;;;;19.01;51.54;97298.81;5029049;28;20560;-79
2023/09/30 02:10:33;;;;;;;11.97;4.90;;;;;;;18.82;52.03;97293.25;5029326;28;20212;-76
2023/09/30 02:13:02;;;;;;;10.03;4.63;;;;;;;18.65;52.61;97291.03;5029488;28;20208;-78
2023/09/30 02:15:29;;;;;;;9.80;5.00;;;;;;;18.55;52.67;97282.19;5029115;28;20193;-78
2023/09/30 02:17:56;;;;;;;11.20;5.27;;;;;;;18.63;52.60;97283.28;5028587;28;20239;-78
2023/09/30 02:20:25;;;;;;;8.57;4.80;;;;;;;18.70;52.40;97283.69;5028753;28;20201;-81
2023/09/30 02:22:54;;;;;;;13.90;4.40;;;;;;;18.89;51.88;97291.03;5030134;28;20205;-76
2023/09/30 02:25:21;;;;;;;12.57;4.87;;;;;;;18.91;51.55;97287.34;5029177;28;20205;-77
2023/09/30 02:27:50;;;;;;;8.23;4.40;;;;;;;18.99;51.40;97284.97;5030244;28;20206;-77
2023/09/30 02:30:18;;;;;;;8.27;5.07;;;;;;;19.02;51.17;97283.91;5029096;28;20315;-77
2023/09/30 02:32:46;;;;;;;10.30;4.53;;;;;;;19.08;51.15;97283.44;5028767;28;20293;-77
2023/09/30 02:35:15;;;;;;;12.30;5.20;;;;;;;19.24;50.18;97284.78;5029944;28;20648;-76
2023/09/30 02:37:42;;;;;;;10.00;5.00;;;;;;;19.17;50.75;97283.56;5029542;28;20205;-77
2023/09/30 02:40:10;;;;;;;8.73;4.90;;;;;;;19.30;50.41;97281.69;5030023;28;20210;-77
2023/09/30 02:42:39;;;;;;;7.17;4.30;;;;;;;19.28;49.89;97277.50;5028751;28;20595;-77
2023/09/30 02:45:08;;;;;;;15.87;4.60;;;;;;;19.22;50.18;97276.19;5030160;28;20792;-77
2023/09/30 02:47:36;;;;;;;8.73;4.73;;;;;;;19.24;50.41;97278.69;5028941;28;20233;-77
2023/09/30 02:50:08;;;;;;;8.57;4.37;;;;;;;19.21;49.93;97268.41;5029922;28;20206;-77
2023/09/30 02:52:36;;;;;;;6.27;5.00;;;;;;;19.26;49.62;97259.25;5029463;28;20202;-77
2023/09/30 02:55:03;;;;;;;9.27;4.20;;;;;;;19.35;49.64;97261.19;5027539;28;20293;-78
2023/09/30 02:57:31;;;;;;;15.83;5.63;;;;;;;19.42;49.29;97259.75;5030000;28;20293;-81
2023/09/30 03:00:00;;;;;;;16.40;5.33;;;;;;;19.32;49.39;97258.78;5027585;28;20281;-79
2023/09/30 03:02:29;;;;;;;10.47;5.80;;;;;;;19.35;49.85;97273.50;5029878;28;20213;-77
2023/09/30 03:04:58;;;;;;;8.17;4.60;;;;;;;19.15;50.50;97269.72;5028695;28;20186;-78
2023/09/30 03:07:25;;;;;;;12.50;5.30;;;;;;;19.27;50.47;97268.78;5028043;28;20626;-77
2023/09/30 03:09:55;;;;;;;8.63;5.00;;;;;;;19.15;50.53;97268.88;5029141;28;20277;-78
2023/09/30 03:12:22;;;;;;;8.73;4.80;;;;;;;19.04;50.75;97264.44;5028790;28;20194;-77
2023/09/30 03:14:51;;;;;;;11.40;4.97;;;;;;;18.80;51.37;97274.16;5029409;28;20201;-77
2023/09/30 03:17:19;;;;;;;8.37;5.07;;;;;;;18.90;50.94;97266.47;5027954;28;20280;-78
2023/09/30 03:19:46;;;;;;;7.63;5.23;;;;;;;18.93;50.95;97267.06;5029536;28;20201;-78
2023/09/30 03:22:13;;;;;;;14.23;5.20;;;;;;;18.91;50.36;97255.84;5026925;28;20227;-77
2023/09/30 03:24:41;;;;;;;9.60;5.10;;;;;;;18.90;50.85;97264.66;5029021;28;20255;-77
2023/09/30 03:27:08;;;;;;;6.93;4.87;;;;;;;18.83;50.23;97265.22;5028587;28;20229;-78
2023/09/30 03:29:38;;;;;;;12.43;4.80;;;;;;;18.96;50.45;97264.19;5028608;28;20198;-78
2023/09/30 03:32:05;;;;;;;10.50;4.93;;;;;;;18.92;50.49;97256.69;5029006;28;20230;-78
2023/09/30 03:34:36;;;;;;;11.10;5.87;;;;;;;18.94;49.84;97246.91;5027821;28;20689;-76
2023/09/30 03:37:06;;;;;;;9.00;5.20;;;;;;;18.99;50.72;97269.22;5029501;28;20224;-78
2023/09/30 03:39:34;;;;;;;9.63;5.63;;;;;;;18.86;50.60;97265.84;5028068;28;20588;-76
2023/09/30 03:42:02;;;;;;;10.73;5.63;;;;;;;18.83;50.57;97275.72;5027347;28;20205;-77
2023/09/30 03:44:29;;;;;;;9.97;5.30;;;;;;;18.67;50.39;97253.25;5028664;28;20229;-75
2023/09/30 03:46:59;;;;;;;7.03;4.80;;;;;;;18.85;51.19;97273.81;5027990;28;20257;-79
2023/09/30 03:49:28;;;;;;;12.67;6.03;;;;;;;18.92;51.22;97278.50;5028823;28;20661;-74
2023/09/30 03:51:55;;;;;;;10.97;5.37;;;;;;;18.91;51.07;97271.59;5027637;28;20229;-78
2023/09/30 03:54:22;;;;;;;8.60;5.07;;;;;;;18.94;51.04;97275.78;5028961;28;20200;-78
2023/09/30 03:56:50;;;;;;;12.10;5.03;;;;;;;18.76;51.67;97275.34;5026440;28;20228;-78
2023/09/30 03:59:18;;;;;;;10.10;5.47;;;;;;;18.64;52.35;97266.63;5028352;28;20700;-77
2023/09/30 04:01:47;;;;;;;9.63;4.90;;;;;;;18.62;52.29;97278.16;5037836;28;20231;-77
2023/09/30 04:04:14;;;;;;;12.13;5.77;;;;;;;18.51;52.39;97283.34;5036511;28;20202;-76
2023/09/30 04:06:42;;;;;;;10.03;5.77;;;;;;;18.50;52.48;97272.06;5029744;28;20228;-76
2023/09/30 04:09:10;;;;;;;13.27;5.70;;;;;;;18.44;52.72;97261.16;5027276;28;20585;-76
2023/09/30 04:11:37;;;;;;;12.40;5.93;;;;;;;18.39;52.87;97273.72;5042860;28;20216;-77
2023/09/30 04:14:08;;;;;;;11.73;5.30;;;;;;;18.35;53.15;97282.78;5048805;28;20856;-77
2023/09/30 04:16:37;;;;;;;10.70;5.00;;;;;;;18.09;53.64;97271.56;5046353;28;20692;-76
2023/09/30 04:19:04;;;;;;;6.77;4.80;;;;;;;17.82;54.29;97277.00;5047923;28;20231;-76
2023/09/30 04:21:34;;;;;;;12.03;4.90;;;;;;;17.72;54.66;97281.19;5038947;28;20203;-75
2023/09/30 04:24:01;;;;;;;8.63;5.67;;;;;;;17.63;55.24;97265.28;5028171;28;20196;-76
2023/09/30 04:26:29;;;;;;;8.70;5.30;;;;;;;17.68;55.02;97282.34;5026895;28;20232;-76
2023/09/30 04:28:57;;;;;;;12.23;5.73;;;;;;;17.34;56.17;97288.22;5027548;28;20203;-79
2023/09/30 04:31:24;;;;;;;18.13;5.90;;;;;;;17.28;56.60;97274.72;5044314;28;20186;-78
2023/09/30 04:33:51;;;;;;;10.83;5.63;;;;;;;17.43;56.53;97279.75;5046824;28;20195;-82
2023/09/30 04:36:22;;;;;;;7.40;5.80;;;;;;;17.34;56.69;97280.38;5045647;28;20241;-80
2023/09/30 04:38:50;;;;;;;9.23;5.30;;;;;;;17.28;57.14;97267.72;5047164;28;20279;-76
2023/09/30 04:41:18;;;;;;;13.23;5.60;;;;;;;17.56;56.53;97272.72;5047852;28;20611;-77
2023/09/30 04:43:46;;;;;;;8.97;5.63;;;;;;;17.48;56.53;97284.66;5046265;28;20222;-79
2023/09/30 04:46:15;;;;;;;11.47;6.00;;;;;;;17.66;56.00;97289.47;5047878;28;20207;-78
2023/09/30 04:48:42;;;;;;;11.60;5.70;;;;;;;17.70;56.16;97285.69;5046708;28;20199;-78
2023/09/30 04:51:10;;;;;;;14.80;5.80;;;;;;;17.95;55.31;97274.31;5045508;28;20207;-78
2023/09/30 04:53:38;;;;;;;20.47;6.07;;;;;;;18.19;54.60;97290.09;5047176;28;20206;-84
2023/09/30 04:56:05;;;;;;;15.07;5.53;;;;;;;18.25;54.48;97287.00;5043476;28;20286;-76
2023/09/30 04:58:33;;;;;;;12.27;5.47;;;;;;;18.29;53.90;97297.19;5046026;28;20197;-74
2023/09/30 05:01:00;;;;;;;14.37;6.20;;;;;;;18.31;54.11;97283.94;5046127;28;20198;-74
2023/09/30 05:03:28;;;;;;;10.00;5.80;;;;;;;18.40;53.30;97291.16;5047536;28;20210;-74
2023/09/30 05:05:56;;;;;;;9.60;6.20;;;;;;;18.57;53.00;97296.00;5045089;28;20204;-73
2023/09/30 05:08:24;;;;;;;13.33;6.67;;;;;;;18.43;53.52;97293.53;5047850;28;20230;-77
2023/09/30 05:10:55;;;;;;;11.97;6.50;;;;;;;18.70;52.95;97288.94;5046866;28;20287;-81
2023/09/30 05:13:25;;;;;;;14.37;6.47;;;;;;;18.65;53.05;97293.66;5046531;28;20211;-78
2023/09/30 05:15:53;;;;;;;8.17;5.93;;;;;;;18.29;54.09;97288.47;5047406;28;20207;-75
2023/09/30 05:18:20;;;;;;;10.17;6.63;;;;;;;18.39;53.96;97292.09;5045520;28;20232;-75
2023/09/30 05:20:49;;;;;;;14.77;7.10;;;;;;;18.59;53.58;97278.38;5047033;28;20589;-74
2023/09/30 05:23:18;;;;;;;14.50;6.90;;;;;;;18.76;53.11;97291.09;5046191;28;20622;-73
2023/09/30 05:25:45;;;;;;;16.73;6.63;;;;;;;19.11;52.27;97289.28;5046701;28;20295;-79
2023/09/30 05:28:13;;;;;;;12.77;6.10;;;;;;;19.39;51.44;97298.56;5046756;28;20318;-76
2023/09/30 05:30:40;;;;;;;10.60;6.50;;;;;;;19.56;50.39;97289.38;5046176;28;20197;-74
2023/09/30 05:33:13;;;;;;;25.43;7.87;;;;;;;19.89;50.17;97289.34;5046656;28;20240;-73
2023/09/30 05:35:41;;;;;;;12.60;6.90;;;;;;;20.22;49.04;97289.34;5045126;28;20547;-75
2023/09/30 05:38:08;;;;;;;13.57;7.43;;;;;;;20.14;49.22;97276.78;5046424;28;20681;-75
2023/09/30 05:40:36;;;;;;;11.80;6.47;;;;;;;20.40;48.31;97287.88;5045828;28;20300;-75
2023/09/30 05:43:05;;;;;;;12.87;6.50;;;;;;;20.15;48.42;97282.88;5049530;28;20680;-75
2023/09/30 05:45:35;;;;;;;17.30;7.67;;;;;;;20.07;48.56;97277.41;5050405;28;20222;-74
2023/09/30 05:48:05;;;;;;;18.90;7.60;;;;;;;20.14;47.88;97278.56;5049482;28;20700;-76
2023/09/30 05:50:36;;;;;;;13.20;8.33;;;;;;;20.51;47.25;97285.19;5050652;28;20226;-74
2023/09/30 05:53:04;;;;;;;13.67;7.50;;;;;;;20.77;45.62;97280.44;5049226;28;20194;-75
2023/09/30 05:55:32;;;;;;;16.53;7.53;;;;;;;21.18;45.00;97279.63;5050460;28;20280;-74
2023/09/30 05:58:00;;;;;;;13.57;8.40;;;;;;;21.37;44.43;97285.03;5049653;28;20578;-76
2023/09/30 06:00:30;;;;;;;14.13;8.13;;;;;;;21.24;44.24;97274.69;5050251;28;20289;-72
2023/09/30 06:02:58;;;;;;;12.80;7.20;;;;;;;21.62;43.83;97287.22;5050974;28;20202;-73
2023/09/30 06:05:29;;;;;;;17.43;8.00;;;;;;;21.58;43.07;97293.72;5050955;28;20204;-73
2023/09/30 06:07:57;;;;;;;12.17;9.87;;;;;;;22.12;42.67;97288.97;5051589;28;20868;-74
2023/09/30 06:10:25;;;;;;;21.40;8.93;;;;;;;22.26;42.50;97283.28;5049951;28;20675;-89
2023/09/30 06:12:54;;;;;;;47.50;22.30;;;;;;;22.27;42.27;97271.78;5049596;28;20575;-74
2023/09/30 06:15:25;;;;;;;18.13;7.87;;;;;;;22.54;41.37;97290.44;5052207;28;20720;-78
2023/09/30 06:17:55;;;;;;;14.20;8.53;;;;;;;22.83;39.97;97282.56;5049787;28;20234;-74
2023/09/30 06:20:25;;;;;;;11.70;6.90;;;;;;;22.97;39.54;97289.22;5051434;28;20205;-79
2023/09/30 06:22:54;;;;;;;11.20;5.90;;;;;;;22.88;37.39;97276.84;5050390;28;20212;-73
2023/09/30 06:25:24;;;;;;;11.70;6.37;;;;;;;22.72;36.87;97245.72;5050904;28;20213;-81
2023/09/30 06:27:55;;;;;;;9.00;5.70;;;;;;;22.93;36.95;97290.47;5049104;28;20318;-73
2023/09/30 06:30:29;;;;;;;10.30;6.17;;;;;;;22.97;37.05;97286.56;5048849;28;20680;-80
2023/09/30 06:33:04;;;;;;;14.50;7.77;;;;;;;23.17;37.01;97288.22;5049900;28;20693;-75
2023/09/30 06:35:38;;;;;;;10.97;6.20;;;;;;;23.13;36.33;97302.69;5048930;28;20195;-74
2023/09/30 06:38:08;;;;;;;9.83;5.53;;;;;;;23.20;36.69;97293.22;5048710;28;20202;-75
2023/09/30 06:40:37;;;;;;;11.97;6.03;;;;;;;23.31;35.73;97296.53;5048451;28;20225;-83
2023/09/30 06:43:07;;;;;;;12.53;6.40;;;;;;;23.58;35.42;97287.03;5049488;28;20191;-88
2023/09/30 06:45:41;;;;;;;11.53;5.90;;;;;;;23.62;35.64;97299.81;5051160;28;20211;-75
2023/09/30 06:48:12;;;;;;;10.23;5.40;;;;;;;23.49;35.71;97303.75;5049772;28;20232;-77
2023/09/30 06:50:45;;;;;;;8.97;5.53;;;;;;;23.63;35.43;97290.91;5048781;28;20680;-78
2023/09/30 06:53:12;;;;;;;13.63;6.03;;;;;;;23.79;35.48;97303.53;5049675;28;20226;-77
2023/09/30 06:55:39;;;;;;;13.33;8.10;;;;;;;23.75;35.27;97295.03;5050939;28;20197;-74
2023/09/30 06:58:07;;;;;;;11.90;6.07;;;;;;;23.58;35.12;97277.28;5049934;28;20198;-76
2023/09/30 07:00:35;;;;;;;12.40;6.57;;;;;;;23.72;36.08;97303.25;5050783;28;20196;-79
2023/09/30 07:03:02;;;;;;;9.13;6.10;;;;;;;23.68;35.14;97303.72;5049605;28;20450;-76
2023/09/30 07:05:30;;;;;;;9.27;5.90;;;;;;;23.63;35.52;97293.56;5047496;28;20876;-86
2023/09/30 07:07:57;;;;;;;7.77;5.30;;;;;;;23.71;36.24;97312.19;5047981;28;20226;-76
2023/09/30 07:10:24;;;;;;;9.03;5.73;;;;;;;23.71;36.25;97309.53;5047313;28;20209;-78
2023/09/30 07:12:51;;;;;;;8.13;5.07;;;;;;;23.54;36.46;97296.22;5049601;28;20232;-73
2023/09/30 07:15:19;;;;;;;10.83;5.17;;;;;;;23.72;35.89;97311.19;5048510;28;20206;-75
2023/09/30 07:17:47;;;;;;;12.77;5.00;;;;;;;23.72;35.80;97316.47;5050043;28;20239;-71
2023/09/30 07:20:15;;;;;;;8.33;5.50;;;;;;;23.78;35.20;97310.63;5050359;28;20281;-74
2023/09/30 07:22:42;;;;;;;11.03;5.67;;;;;;;24.01;35.30;97317.22;5050155;28;20679;-77
2023/09/30 07:25:31;;;;;;;12.00;4.83;;;;;;;24.06;35.45;97330.03;5048705;28;20234;-79
2023/09/30 07:28:00;;;;;;;10.20;4.37;;;;;;;23.90;36.34;97330.66;5048471;28;20327;-74
2023/09/30 07:30:27;;;;;;;6.93;4.87;;;;;;;23.63;35.93;97301.50;5049281;28;20211;-75
2023/09/30 07:32:54;;;;;;;6.53;4.40;;;;;;;23.83;35.46;97321.59;5047567;28;20290;-75
2023/09/30 07:35:23;;;;;;;9.97;4.30;;;;;;;23.89;36.40;97317.53;5046847;28;20743;-75
2023/09/30 07:37:53;;;;;;;12.27;4.30;;;;;;;23.94;36.26;97325.88;5048447;28;20633;-75
2023/09/30 07:40:21;;;;;;;6.33;4.50;;;;;;;23.99;35.76;97340.34;5047010;28;20211;-74
2023/09/30 07:42:48;;;;;;;6.20;4.20;;;;;;;23.80;36.00;97344.88;5047904;28;20207;-73
2023/09/30 07:45:16;;;;;;;9.03;4.03;;;;;;;23.90;35.70;97324.50;5046665;28;20664;-74
2023/09/30 07:47:46;;;;;;;8.10;4.37;;;;;;;24.05;35.69;97334.50;5046735;28;20763;-74
2023/09/30 07:50:13;;;;;;;10.63;3.97;;;;;;;24.17;35.33;97333.31;5046365;28;20721;-73
2023/09/30 07:52:42;;;;;;;12.27;6.67;;;;;;;24.10;35.50;97340.19;5030437;28;20604;-73
2023/09/30 07:55:09;;;;;;;13.60;4.93;;;;;;;24.30;35.38;97345.41;5048066;28;20209;-73
2023/09/30 07:57:42;;;;;;;9.33;4.90;;;;;;;23.98;35.97;97330.75;5046263;28;20205;-72
2023/09/30 08:00:14;;;;;;;11.10;4.43;;;;;;;24.33;35.11;97345.94;5048397;28;20232;-72
2023/09/30 08:02:44;;;;;;;8.33;4.13;;;;;;;24.41;34.54;97350.47;5046679;28;20217;-75
2023/09/30 08:05:12;;;;;;;5.97;3.73;;;;;;;24.67;35.17;97357.56;5048835;28;20725;-77
2023/09/30 08:07:40;;;;;;;5.43;3.87;;;;;;;24.64;34.99;97351.75;5048388;28;20228;-86
2023/09/30 08:10:13;;;;;;;7.83;4.23;;;;;;;24.51;34.90;97357.41;5049429;28;20254;-80
2023/09/30 08:12:41;;;;;;;10.53;4.07;;;;;;;24.32;34.78;97362.78;5048775;28;20279;-74
2023/09/30 08:15:11;;;;;;;8.63;4.23;;;;;;;24.27;35.39;97354.47;5045680;28;20208;-73
2023/09/30 08:17:40;;;;;;;11.03;3.90;;;;;;;24.32;35.55;97361.97;5047350;28;20237;-74
2023/09/30 08:20:11;;;;;;;8.47;3.67;;;;;;;24.60;34.41;97372.41;5045970;28;20641;-79
2023/09/30 08:22:39;;;;;;;5.20;3.60;;;;;;;24.44;35.37;97376.69;5047728;28;20262;-74
2023/09/30 08:25:07;;;;;;;7.27;3.50;;;;;;;24.53;35.08;97371.31;5048461;28;20194;-75
2023/09/30 08:27:37;;;;;;;6.93;3.40;;;;;;;24.24;35.07;97366.19;5048476;28;20237;-73
2023/09/30 08:30:05;;;;;;;4.57;3.60;;;;;;;24.23;35.21;97385.66;5047938;28;20605;-75
2023/09/30 08:32:37;;;;;;;7.83;3.63;;;;;;;23.88;35.22;97379.38;5048387;28;20277;-75
2023/09/30 08:35:05;;;;;;;9.67;4.30;;;;;;;23.98;35.54;97378.38;5047535;28;20235;-78
2023/09/30 08:37:32;;;;;;;10.83;3.77;;;;;;;24.24;36.53;97373.28;5045634;28;20274;-80
2023/09/30 08:40:00;;;;;;;7.10;3.47;;;;;;;24.00;35.79;97389.66;5045526;28;20288;-78
2023/09/30 08:42:33;;;;;;;7.40;4.33;;;;;;;23.75;36.84;97369.13;5046889;28;20688;-83
2023/09/30 08:45:06;;;;;;;7.53;4.57;;;;;;;23.68;36.63;97383.06;5046954;28;20208;-83
2023/09/30 08:47:35;;;;;;;7.80;3.97;;;;;;;23.90;36.82;97372.97;5049222;28;20266;-85
2023/09/30 08:50:08;;;;;;;9.03;3.57;;;;;;;24.15;36.30;97382.13;5046358;28;20252;-83
2023/09/30 08:52:44;;;;;;;9.57;4.03;;;;;;;24.01;36.29;97375.44;5047984;28;20250;-76
2023/09/30 08:55:12;;;;;;;8.13;3.87;;;;;;;23.97;36.62;97378.50;5046409;28;20318;-77
2023/09/30 08:57:41;;;;;;;7.57;3.83;;;;;;;24.09;35.95;97375.56;5046505;28;20668;-79
2023/09/30 09:00:11;;;;;;;9.80;4.43;;;;;;;24.23;35.62;97376.91;5046401;28;20240;-76
2023/09/30 09:02:40;;;;;;;6.93;3.90;;;;;;;24.23;35.47;97364.50;5046121;28;20314;-79
2023/09/30 09:05:09;;;;;;;5.80;4.00;;;;;;;24.12;35.59;97370.00;5046240;28;20195;-75
2023/09/30 09:07:36;;;;;;;6.30;4.27;;;;;;;24.14;35.57;97356.59;5044870;28;20254;-77
2023/09/30 09:10:09;;;;;;;8.53;3.97;;;;;;;24.36;36.08;97379.22;5046392;28;20199;-83
2023/09/30 09:12:38;;;;;;;8.63;3.90;;;;;;;24.32;35.52;97377.88;5045679;28;20201;-76
2023/09/30 09:15:08;;;;;;;10.77;4.27;;;;;;;24.34;36.07;97381.19;5045519;28;20201;-81
2023/09/30 09:17:43;;;;;;;5.23;3.90;;;;;;;24.30;35.17;97374.53;5046892;28;20239;-81
2023/09/30 09:20:17;;;;;;;9.30;4.20;;;;;;;24.22;36.17;97375.25;5045759;28;20231;-80
2023/09/30 09:22:44;;;;;;;10.23;3.80;;;;;;;24.11;36.04;97378.09;5047109;28;20201;-80
2023/09/30 09:25:11;;;;;;;11.53;4.83;;;;;;;24.10;36.05;97369.31;5044441;28;20717;-81
2023/09/30 09:27:39;;;;;;;6.10;3.80;;;;;;;23.93;36.03;97380.59;5046615;28;20735;-76
2023/09/30 09:30:22;;;;;;;5.90;3.80;;;;;;;24.05;36.10;97376.03;5046282;28;20205;-78
2023/09/30 09:33:00;;;;;;;8.00;4.60;;;;;;;24.27;36.16;97370.34;5045973;28;20203;-81
2023/09/30 09:35:30;;;;;;;8.40;4.10;;;;;;;24.21;36.12;97371.75;5045649;28;20710;-83
2023/09/30 09:38:03;;;;;;;8.83;3.93;;;;;;;24.18;35.79;97371.22;5031390;28;20203;-83
2023/09/30 09:40:40;;;;;;;9.67;4.70;;;;;;;24.09;36.34;97362.34;5010960;28;20935;-76
2023/09/30 09:43:11;;;;;;;8.00;4.63;;;;;;;24.36;36.40;97358.84;5027415;28;20744;-80
2023/09/30 09:45:38;;;;;;;10.80;4.23;;;;;;;24.54;35.32;97358.91;5024941;28;20200;-80
2023/09/30 09:48:06;;;;;;;9.27;4.70;;;;;;;24.33;35.86;97353.03;5027253;28;20334;-83
2023/09/30 09:50:38;;;;;;;6.93;3.93;;;;;;;24.63;35.49;97363.31;5026626;28;20262;-79
2023/09/30 09:53:08;;;;;;;14.23;4.23;;;;;;;24.64;35.78;97349.09;5009818;28;20774;-83
2023/09/30 09:55:38;;;;;;;10.23;4.30;;;;;;;24.33;36.58;97371.56;5026218;28;20244;-81
2023/09/30 09:58:08;;;;;;;7.70;4.73;;;;;;;24.13;35.71;97347.81;5028395;28;20645;-77
2023/09/30 10:00:36;;;;;;;8.30;4.70;;;;;;;24.34;36.61;97362.66;5025466;28;20205;-87
2023/09/30 10:03:03;;;;;;;8.03;4.70;;;;;;;24.07;37.04;97360.84;5025493;28;20953;-78
2023/09/30 10:05:32;;;;;;;12.73;4.70;;;;;;;23.92;37.01;97355.16;5026482;28;20808;-82
2023/09/30 10:08:20;;;;;;;5.87;4.37;;;;;;;23.76;36.77;97311.75;5025200;28;20232;-81
2023/09/30 10:10:48;;;;;;;11.10;4.67;;;;;;;23.96;36.78;97343.28;5025015;28;20586;-80
2023/09/30 10:13:52;;;;;;;7.07;4.43;;;;;;;24.10;37.42;97347.28;5025848;28;20211;-82
2023/09/30 10:16:37;;;;;;;6.63;4.07;;;;;;;24.31;37.11;97341.75;5024940;28;20255;-76
2023/09/30 10:19:11;;;;;;;10.17;5.23;;;;;;;24.61;36.68;97347.56;5027962;28;20662;-77
2023/09/30 10:21:39;;;;;;;12.67;4.50;;;;;;;24.25;37.23;97330.75;5026799;28;20272;-79
2023/09/30 10:24:27;;;;;;;10.50;4.27;;;;;;;24.18;37.16;97335.00;5032601;28;20196;-86
2023/09/30 10:27:29;;;;;;;9.23;4.60;;;;;;;24.09;37.97;97327.94;5032121;28;20191;-79
2023/09/30 10:30:16;;;;;;;10.53;4.67;;;;;;;24.12;37.57;97335.59;5029969;28;20587;-81
2023/09/30 10:32:53;;;;;;;9.47;4.40;;;;;;;24.00;38.29;97331.44;5030957;28;20634;-77
2023/09/30 10:35:41;;;;;;;8.40;4.30;;;;;;;24.18;37.42;97327.06;5032442;28;20211;-79
2023/09/30 10:38:27;;;;;;;6.50;4.43;;;;;;;24.39;37.30;97318.03;5037341;28;20217;-76
2023/09/30 10:40:58;;;;;;;16.00;5.40;;;;;;;24.49;37.69;97319.63;5037445;28;20197;-77
2023/09/30 10:43:33;;;;;;;9.37;4.20;;;;;;;24.45;37.83;97307.69;5036548;28;20204;-74
2023/09/30 10:46:00;;;;;;;10.27;5.20;;;;;;;24.43;37.18;97303.50;5036719;28;20212;-75
2023/09/30 10:48:27;;;;;;;8.83;4.83;;;;;;;24.49;37.42;97305.56;5036158;28;20269;-72
2023/09/30 10:50:58;;;;;;;7.73;4.90;;;;;;;24.48;37.75;97299.44;5036022;28;20186;-78
2023/09/30 10:53:27;;;;;;;10.83;4.80;;;;;;;24.59;37.58;97291.25;5031834;28;20232;-81
2023/09/30 10:55:58;;;;;;;9.57;4.67;;;;;;;24.56;37.13;97298.69;5030503;28;20658;-78
2023/09/30 10:58:51;;;;;;;10.80;4.70;;;;;;;24.59;37.75;97285.13;5031501;28;20635;-74
2023/09/30 11:01:20;;;;;;;9.17;4.67;;;;;;;24.61;37.17;97283.16;5033860;28;20287;-75
2023/09/30 11:03:53;;;;;;;9.97;5.30;;;;;;;24.75;37.50;97275.56;5030142;28;20193;-75
2023/09/30 11:06:21;;;;;;;9.40;4.43;;;;;;;24.94;36.94;97274.56;5029678;28;20206;-83
2023/09/30 11:08:59;;;;;;;9.10;4.77;;;;;;;25.00;36.32;97266.00;5025948;28;20261;-83
2023/09/30 11:11:48;;;;;;;7.40;4.53;;;;;;;25.22;36.64;97277.94;5028254;28;20192;-81
2023/09/30 11:14:32;;;;;;;7.43;4.40;;;;;;;25.11;36.52;97262.25;5029633;28;20672;-74
2023/09/30 11:17:05;;;;;;;7.83;4.30;;;;;;;25.00;34.64;97268.63;5028706;28;20260;-77
2023/09/30 11:19:46;;;;;;;7.43;3.80;;;;;;;24.90;35.21;97267.91;5030146;28;20205;-78
2023/09/30 11:22:15;;;;;;;5.90;4.50;;;;;;;25.01;34.69;97265.84;5028090;28;20630;-80
2023/09/30 11:24:42;;;;;;;7.10;4.37;;;;;;;24.86;33.87;97255.94;5032188;28;20200;-77
2023/09/30 11:27:09;;;;;;;10.73;4.10;;;;;;;24.87;33.41;97263.72;5029820;28;20676;-84
2023/09/30 11:29:36;;;;;;;6.90;3.73;;;;;;;24.96;32.77;97261.97;5028152;28;20236;-83
2023/09/30 11:32:03;;;;;;;6.67;4.30;;;;;;;25.21;33.10;97271.78;5031959;28;20201;-77
2023/09/30 11:34:33;;;;;;;11.07;3.77;;;;;;;25.40;32.73;97265.47;5031352;28;20229;-82
2023/09/30 11:37:01;;;;;;;11.50;4.20;;;;;;;25.58;32.14;97269.75;5033128;28;20225;-75
2023/09/30 11:39:30;;;;;;;9.60;3.73;;;;;;;25.54;32.14;97273.69;5035050;28;20207;-86
2023/09/30 11:41:57;;;;;;;6.60;3.67;;;;;;;25.15;32.17;97243.25;5037481;28;20203;-84